sensor_id;sensor_type;location;lat;lon;timestamp;temperature;humidity
17202;DHT22;8717;53.588;10.176;2023-07-20T00:01:49;13.00;99.90
17202;DHT22;8717;53.588;10.176;2023-07-20T00:04:16;13.00;99.90
17202;DHT22;8717;53.588;10.176;2023-07-20T00:06:43;13.10;99.90
17202;DHT22;8717;53.588;10.176;2023-07-20T00:09:10;13.10;99.90
17202;DHT22;8717;53.588;10.176;2023-07-20T00:11:37;13.20;99.90
17202;DHT22;8717;53.588;10.176;2023-07-20T00:14:06;13.20;99.90
17202;DHT22;8717;53.588;10.176;2023-07-20T00:16:33;13.20;99.90
17202;DHT22;8717;53.588;10.176;2023-07-20T00:19:00;13.30;99.90
17202;DHT22;8717;53.588;10.176;2023-07-20T00:21:27;13.30;99.90
17202;DHT22;8717;53.588;10.176;2023-07-20T00:23:54;13.40;99.90
17202;DHT22;8717;53.588;10.176;2023-07-20T00:26:20;13.40;99.90
17202;DHT22;8717;53.588;10.176;2023-07-20T00:28:50;13.40;99.90
17202;DHT22;8717;53.588;10.176;2023-07-20T00:31:20;13.50;99.90
17202;DHT22;8717;53.588;10.176;2023-07-20T00:33:47;13.50;99.90
17202;DHT22;8717;53.588;10.176;2023-07-20T00:36:14;13.60;99.90
17202;DHT22;8717;53.588;10.176;2023-07-20T00:38:42;13.60;99.90
17202;DHT22;8717;53.588;10.176;2023-07-20T00:41:09;13.70;99.90
17202;DHT22;8717;53.588;10.176;2023-07-20T00:43:35;13.70;99.90
17202;DHT22;8717;53.588;10.176;2023-07-20T00:46:02;13.80;99.90
17202;DHT22;8717;53.588;10.176;2023-07-20T00:48:31;13.80;99.90
17202;DHT22;8717;53.588;10.176;2023-07-20T00:50:59;13.80;99.90
17202;DHT22;8717;53.588;10.176;2023-07-20T00:53:27;13.90;99.90
17202;DHT22;8717;53.588;10.176;2023-07-20T00:55:54;13.90;99.90
17202;DHT22;8717;53.588;10.176;2023-07-20T00:58:21;14.00;99.90
17202;DHT22;8717;53.588;10.176;2023-07-20T01:00:48;14.00;99.90
17202;DHT22;8717;53.588;10.176;2023-07-20T01:03:14;14.00;99.90
17202;DHT22;8717;53.588;10.176;2023-07-20T01:36:42;14.00;99.90
17202;DHT22;8717;53.588;10.176;2023-07-20T01:39:11;14.00;99.90
17202;DHT22;8717;53.588;10.176;2023-07-20T01:41:38;13.90;99.90
17202;DHT22;8717;53.588;10.176;2023-07-20T01:44:05;13.90;99.90
17202;DHT22;8717;53.588;10.176;2023-07-20T01:46:32;13.80;99.90
17202;DHT22;8717;53.588;10.176;2023-07-20T01:48:59;13.80;99.90
17202;DHT22;8717;53.588;10.176;2023-07-20T01:51:25;13.80;99.90
17202;DHT22;8717;53.588;10.176;2023-07-20T01:53:54;13.80;99.90
17202;DHT22;8717;53.588;10.176;2023-07-20T01:56:20;13.80;99.90
17202;DHT22;8717;53.588;10.176;2023-07-20T01:58:47;13.80;99.90
17202;DHT22;8717;53.588;10.176;2023-07-20T02:01:14;13.80;99.90
17202;DHT22;8717;53.588;10.176;2023-07-20T02:03:41;13.80;99.90
17202;DHT22;8717;53.588;10.176;2023-07-20T02:06:08;13.70;99.90
17202;DHT22;8717;53.588;10.176;2023-07-20T02:08:34;13.80;99.90
17202;DHT22;8717;53.588;10.176;2023-07-20T02:11:02;13.70;99.90
17202;DHT22;8717;53.588;10.176;2023-07-20T02:13:30;13.70;99.90
17202;DHT22;8717;53.588;10.176;2023-07-20T02:15:57;13.80;99.90
17202;DHT22;8717;53.588;10.176;2023-07-20T02:18:23;13.70;99.90
17202;DHT22;8717;53.588;10.176;2023-07-20T02:20:52;13.70;99.90
17202;DHT22;8717;53.588;10.176;2023-07-20T02:23:19;13.70;99.90
17202;DHT22;8717;53.588;10.176;2023-07-20T02:25:46;13.70;99.90
17202;DHT22;8717;53.588;10.176;2023-07-20T02:28:15;13.70;99.90
17202;DHT22;8717;53.588;10.176;2023-07-20T02:30:41;13.70;99.90
17202;DHT22;8717;53.588;10.176;2023-07-20T02:33:08;13.70;99.90
17202;DHT22;8717;53.588;10.176;2023-07-20T02:35:35;13.70;99.90
17202;DHT22;8717;53.588;10.176;2023-07-20T02:38:02;13.70;99.90
17202;DHT22;8717;53.588;10.176;2023-07-20T02:40:29;13.70;99.90
17202;DHT22;8717;53.588;10.176;2023-07-20T02:42:55;13.70;99.90
17202;DHT22;8717;53.588;10.176;2023-07-20T02:45:23;13.70;99.90
17202;DHT22;8717;53.588;10.176;2023-07-20T02:47:51;13.70;99.90
17202;DHT22;8717;53.588;10.176;2023-07-20T02:50:18;13.70;99.90
17202;DHT22;8717;53.588;10.176;2023-07-20T02:52:45;13.70;99.90
17202;DHT22;8717;53.588;10.176;2023-07-20T02:55:11;13.70;99.90
17202;DHT22;8717;53.588;10.176;2023-07-20T02:57:38;13.70;99.90
17202;DHT22;8717;53.588;10.176;2023-07-20T03:00:06;13.70;99.90
17202;DHT22;8717;53.588;10.176;2023-07-20T03:02:34;13.70;99.90
17202;DHT22;8717;53.588;10.176;2023-07-20T03:05:01;13.70;99.90
17202;DHT22;8717;53.588;10.176;2023-07-20T03:07:31;13.70;99.90
17202;DHT22;8717;53.588;10.176;2023-07-20T03:09:58;13.70;99.90
17202;DHT22;8717;53.588;10.176;2023-07-20T03:12:25;13.70;99.90
17202;DHT22;8717;53.588;10.176;2023-07-20T03:14:53;13.70;99.90
17202;DHT22;8717;53.588;10.176;2023-07-20T03:17:22;13.70;99.90
17202;DHT22;8717;53.588;10.176;2023-07-20T03:19:51;13.60;99.90
17202;DHT22;8717;53.588;10.176;2023-07-20T03:22:18;13.60;99.90
17202;DHT22;8717;53.588;10.176;2023-07-20T03:24:45;13.60;99.90
17202;DHT22;8717;53.588;10.176;2023-07-20T03:27:11;13.60;99.90
17202;DHT22;8717;53.588;10.176;2023-07-20T03:29:38;13.60;99.90
17202;DHT22;8717;53.588;10.176;2023-07-20T03:32:06;13.60;99.90
17202;DHT22;8717;53.588;10.176;2023-07-20T03:34:32;13.60;99.90
17202;DHT22;8717;53.588;10.176;2023-07-20T03:37:00;13.60;99.90
17202;DHT22;8717;53.588;10.176;2023-07-20T03:39:30;13.60;99.90
17202;DHT22;8717;53.588;10.176;2023-07-20T03:41:57;13.60;99.90
17202;DHT22;8717;53.588;10.176;2023-07-20T03:44:24;13.60;99.90
17202;DHT22;8717;53.588;10.176;2023-07-20T03:46:51;13.60;99.90
17202;DHT22;8717;53.588;10.176;2023-07-20T03:49:18;13.60;99.90
17202;DHT22;8717;53.588;10.176;2023-07-20T03:51:44;13.60;99.90
17202;DHT22;8717;53.588;10.176;2023-07-20T03:54:12;13.60;99.90
17202;DHT22;8717;53.588;10.176;2023-07-20T03:56:39;13.60;99.90
17202;DHT22;8717;53.588;10.176;2023-07-20T03:59:06;13.60;99.90
17202;DHT22;8717;53.588;10.176;2023-07-20T04:01:33;13.60;99.90
17202;DHT22;8717;53.588;10.176;2023-07-20T04:04:04;13.60;99.90
17202;DHT22;8717;53.588;10.176;2023-07-20T04:06:31;13.60;99.90
17202;DHT22;8717;53.588;10.176;2023-07-20T04:08:57;13.60;99.90
17202;DHT22;8717;53.588;10.176;2023-07-20T04:11:25;13.70;99.90
17202;DHT22;8717;53.588;10.176;2023-07-20T04:13:52;13.70;99.90
17202;DHT22;8717;53.588;10.176;2023-07-20T04:16:20;13.70;99.90
17202;DHT22;8717;53.588;10.176;2023-07-20T04:18:46;13.70;99.90
17202;DHT22;8717;53.588;10.176;2023-07-20T04:21:13;13.70;99.90
17202;DHT22;8717;53.588;10.176;2023-07-20T04:23:40;13.80;99.90
17202;DHT22;8717;53.588;10.176;2023-07-20T04:26:07;13.80;99.90
17202;DHT22;8717;53.588;10.176;2023-07-20T04:28:35;13.80;99.90
17202;DHT22;8717;53.588;10.176;2023-07-20T04:31:12;13.80;99.90
17202;DHT22;8717;53.588;10.176;2023-07-20T04:33:39;13.80;99.90
17202;DHT22;8717;53.588;10.176;2023-07-20T04:36:06;13.80;99.90
17202;DHT22;8717;53.588;10.176;2023-07-20T04:38:34;13.90;99.90
17202;DHT22;8717;53.588;10.176;2023-07-20T04:41:09;13.90;99.90
17202;DHT22;8717;53.588;10.176;2023-07-20T04:43:42;13.90;99.90
17202;DHT22;8717;53.588;10.176;2023-07-20T04:46:10;13.90;99.90
17202;DHT22;8717;53.588;10.176;2023-07-20T04:48:37;14.00;99.90
17202;DHT22;8717;53.588;10.176;2023-07-20T04:51:06;14.00;99.90
17202;DHT22;8717;53.588;10.176;2023-07-20T04:53:33;14.00;99.90
17202;DHT22;8717;53.588;10.176;2023-07-20T04:56:00;14.10;99.90
17202;DHT22;8717;53.588;10.176;2023-07-20T04:58:28;14.10;99.90
17202;DHT22;8717;53.588;10.176;2023-07-20T05:00:56;14.20;99.90
17202;DHT22;8717;53.588;10.176;2023-07-20T05:03:23;14.30;99.90
17202;DHT22;8717;53.588;10.176;2023-07-20T05:05:50;14.30;99.90
17202;DHT22;8717;53.588;10.176;2023-07-20T05:08:17;14.30;99.90
17202;DHT22;8717;53.588;10.176;2023-07-20T05:10:44;14.40;99.90
17202;DHT22;8717;53.588;10.176;2023-07-20T05:13:11;14.50;99.90
17202;DHT22;8717;53.588;10.176;2023-07-20T05:15:37;14.50;99.90
17202;DHT22;8717;53.588;10.176;2023-07-20T05:18:08;14.50;99.90
17202;DHT22;8717;53.588;10.176;2023-07-20T05:20:34;14.50;99.90
17202;DHT22;8717;53.588;10.176;2023-07-20T05:23:02;14.50;99.90
17202;DHT22;8717;53.588;10.176;2023-07-20T05:25:29;14.50;99.90
17202;DHT22;8717;53.588;10.176;2023-07-20T05:27:56;14.50;99.90
17202;DHT22;8717;53.588;10.176;2023-07-20T05:30:23;14.50;99.90
17202;DHT22;8717;53.588;10.176;2023-07-20T05:32:50;14.50;99.90
17202;DHT22;8717;53.588;10.176;2023-07-20T05:35:19;14.40;99.90
17202;DHT22;8717;53.588;10.176;2023-07-20T05:37:46;14.40;99.90
17202;DHT22;8717;53.588;10.176;2023-07-20T05:40:13;14.40;99.90
17202;DHT22;8717;53.588;10.176;2023-07-20T05:42:44;14.40;99.90
17202;DHT22;8717;53.588;10.176;2023-07-20T05:45:11;14.40;99.90
17202;DHT22;8717;53.588;10.176;2023-07-20T05:47:37;14.40;99.90
17202;DHT22;8717;53.588;10.176;2023-07-20T05:50:05;14.50;99.90
17202;DHT22;8717;53.588;10.176;2023-07-20T05:52:33;14.50;99.90
17202;DHT22;8717;53.588;10.176;2023-07-20T05:55:00;14.50;99.90
17202;DHT22;8717;53.588;10.176;2023-07-20T05:57:26;14.50;99.90
17202;DHT22;8717;53.588;10.176;2023-07-20T05:59:53;14.50;99.90
17202;DHT22;8717;53.588;10.176;2023-07-20T06:02:20;14.50;99.90
17202;DHT22;8717;53.588;10.176;2023-07-20T06:04:47;14.50;99.90
17202;DHT22;8717;53.588;10.176;2023-07-20T06:07:13;14.50;99.90
17202;DHT22;8717;53.588;10.176;2023-07-20T06:09:41;14.50;99.90
17202;DHT22;8717;53.588;10.176;2023-07-20T06:12:09;14.50;99.90
17202;DHT22;8717;53.588;10.176;2023-07-20T06:14:35;14.60;99.90
17202;DHT22;8717;53.588;10.176;2023-07-20T06:17:02;14.60;99.90
17202;DHT22;8717;53.588;10.176;2023-07-20T06:19:29;14.60;99.90
17202;DHT22;8717;53.588;10.176;2023-07-20T06:21:56;14.70;99.90
17202;DHT22;8717;53.588;10.176;2023-07-20T06:24:22;14.70;99.90
17202;DHT22;8717;53.588;10.176;2023-07-20T06:26:50;14.70;99.90
17202;DHT22;8717;53.588;10.176;2023-07-20T06:29:17;14.80;99.90
17202;DHT22;8717;53.588;10.176;2023-07-20T06:31:44;14.90;99.90
17202;DHT22;8717;53.588;10.176;2023-07-20T06:34:11;15.00;99.90
17202;DHT22;8717;53.588;10.176;2023-07-20T06:36:38;15.10;99.90
17202;DHT22;8717;53.588;10.176;2023-07-20T06:39:05;15.20;99.90
17202;DHT22;8717;53.588;10.176;2023-07-20T06:41:31;15.40;99.90
17202;DHT22;8717;53.588;10.176;2023-07-20T06:43:59;15.50;99.90
17202;DHT22;8717;53.588;10.176;2023-07-20T06:46:26;15.60;99.90
17202;DHT22;8717;53.588;10.176;2023-07-20T06:48:53;15.80;99.90
17202;DHT22;8717;53.588;10.176;2023-07-20T06:51:20;15.90;99.90
17202;DHT22;8717;53.588;10.176;2023-07-20T06:53:47;16.20;99.90
17202;DHT22;8717;53.588;10.176;2023-07-20T06:56:14;16.40;99.90
17202;DHT22;8717;53.588;10.176;2023-07-20T06:58:40;16.70;99.90
17202;DHT22;8717;53.588;10.176;2023-07-20T07:01:08;17.00;99.90
17202;DHT22;8717;53.588;10.176;2023-07-20T07:03:35;17.20;99.90
17202;DHT22;8717;53.588;10.176;2023-07-20T07:06:02;17.30;99.90
17202;DHT22;8717;53.588;10.176;2023-07-20T07:08:29;17.40;99.90
17202;DHT22;8717;53.588;10.176;2023-07-20T07:10:55;17.40;99.90
17202;DHT22;8717;53.588;10.176;2023-07-20T07:13:22;17.50;99.90
17202;DHT22;8717;53.588;10.176;2023-07-20T07:15:49;17.70;99.90
17202;DHT22;8717;53.588;10.176;2023-07-20T07:18:17;18.00;99.90
17202;DHT22;8717;53.588;10.176;2023-07-20T07:20:50;18.30;99.90
17202;DHT22;8717;53.588;10.176;2023-07-20T07:23:17;18.80;99.90
17202;DHT22;8717;53.588;10.176;2023-07-20T07:25:44;19.20;99.90
17202;DHT22;8717;53.588;10.176;2023-07-20T07:28:12;19.70;99.90
17202;DHT22;8717;53.588;10.176;2023-07-20T07:30:38;20.30;99.90
17202;DHT22;8717;53.588;10.176;2023-07-20T07:33:05;20.90;99.90
17202;DHT22;8717;53.588;10.176;2023-07-20T07:35:33;21.40;99.90
17202;DHT22;8717;53.588;10.176;2023-07-20T07:38:00;21.60;99.90
17202;DHT22;8717;53.588;10.176;2023-07-20T07:40:27;21.70;99.90
17202;DHT22;8717;53.588;10.176;2023-07-20T07:42:53;21.50;99.90
17202;DHT22;8717;53.588;10.176;2023-07-20T07:45:20;21.20;99.90
17202;DHT22;8717;53.588;10.176;2023-07-20T07:47:47;20.90;99.90
17202;DHT22;8717;53.588;10.176;2023-07-20T07:50:14;20.70;99.90
17202;DHT22;8717;53.588;10.176;2023-07-20T07:52:42;20.60;99.90
17202;DHT22;8717;53.588;10.176;2023-07-20T07:55:08;20.50;99.90
17202;DHT22;8717;53.588;10.176;2023-07-20T07:57:35;20.30;99.90
17202;DHT22;8717;53.588;10.176;2023-07-20T08:00:02;20.10;99.90
17202;DHT22;8717;53.588;10.176;2023-07-20T08:02:30;19.80;99.90
17202;DHT22;8717;53.588;10.176;2023-07-20T08:04:57;19.50;99.90
17202;DHT22;8717;53.588;10.176;2023-07-20T08:07:24;19.10;99.90
17202;DHT22;8717;53.588;10.176;2023-07-20T08:09:52;18.80;99.90
17202;DHT22;8717;53.588;10.176;2023-07-20T08:12:18;18.50;99.90
17202;DHT22;8717;53.588;10.176;2023-07-20T08:14:45;18.30;99.90
17202;DHT22;8717;53.588;10.176;2023-07-20T08:17:12;18.20;99.90
17202;DHT22;8717;53.588;10.176;2023-07-20T08:19:39;18.40;99.90
17202;DHT22;8717;53.588;10.176;2023-07-20T08:22:07;18.80;99.90
17202;DHT22;8717;53.588;10.176;2023-07-20T08:24:34;19.30;99.90
17202;DHT22;8717;53.588;10.176;2023-07-20T08:27:03;19.90;99.90
17202;DHT22;8717;53.588;10.176;2023-07-20T08:29:30;20.60;99.90
17202;DHT22;8717;53.588;10.176;2023-07-20T08:31:57;21.20;99.90
17202;DHT22;8717;53.588;10.176;2023-07-20T08:34:23;21.70;99.90
17202;DHT22;8717;53.588;10.176;2023-07-20T08:36:50;22.10;99.90
17202;DHT22;8717;53.588;10.176;2023-07-20T08:39:17;22.30;99.90
17202;DHT22;8717;53.588;10.176;2023-07-20T08:41:44;22.50;99.90
17202;DHT22;8717;53.588;10.176;2023-07-20T08:44:12;22.70;99.90
17202;DHT22;8717;53.588;10.176;2023-07-20T08:46:40;23.10;99.90
17202;DHT22;8717;53.588;10.176;2023-07-20T08:49:07;23.30;99.90
17202;DHT22;8717;53.588;10.176;2023-07-20T08:51:35;23.40;99.90
17202;DHT22;8717;53.588;10.176;2023-07-20T08:54:03;23.50;99.20
17202;DHT22;8717;53.588;10.176;2023-07-20T08:56:31;23.60;99.00
17202;DHT22;8717;53.588;10.176;2023-07-20T08:59:00;23.70;98.20
17202;DHT22;8717;53.588;10.176;2023-07-20T09:01:29;23.80;98.60
17202;DHT22;8717;53.588;10.176;2023-07-20T09:03:55;23.90;98.10
17202;DHT22;8717;53.588;10.176;2023-07-20T09:06:23;24.00;97.60
17202;DHT22;8717;53.588;10.176;2023-07-20T09:08:50;24.00;97.00
17202;DHT22;8717;53.588;10.176;2023-07-20T09:11:16;23.90;95.90
17202;DHT22;8717;53.588;10.176;2023-07-20T09:13:43;23.70;95.80
17202;DHT22;8717;53.588;10.176;2023-07-20T09:16:13;23.40;95.60
17202;DHT22;8717;53.588;10.176;2023-07-20T09:18:41;23.10;96.10
17202;DHT22;8717;53.588;10.176;2023-07-20T09:21:08;23.00;96.40
17202;DHT22;8717;53.588;10.176;2023-07-20T09:23:36;23.00;96.80
17202;DHT22;8717;53.588;10.176;2023-07-20T09:26:09;23.10;96.20
17202;DHT22;8717;53.588;10.176;2023-07-20T09:28:41;23.30;96.00
17202;DHT22;8717;53.588;10.176;2023-07-20T09:31:16;23.60;96.30
17202;DHT22;8717;53.588;10.176;2023-07-20T09:33:44;23.90;95.80
17202;DHT22;8717;53.588;10.176;2023-07-20T09:36:11;24.40;95.80
17202;DHT22;8717;53.588;10.176;2023-07-20T09:38:39;24.70;96.50
17202;DHT22;8717;53.588;10.176;2023-07-20T09:41:06;24.90;98.20
17202;DHT22;8717;53.588;10.176;2023-07-20T09:43:34;24.90;97.70
17202;DHT22;8717;53.588;10.176;2023-07-20T09:46:01;24.60;96.50
17202;DHT22;8717;53.588;10.176;2023-07-20T09:48:29;23.90;97.10
17202;DHT22;8717;53.588;10.176;2023-07-20T09:50:57;23.30;97.80
17202;DHT22;8717;53.588;10.176;2023-07-20T09:53:25;22.60;99.60
17202;DHT22;8717;53.588;10.176;2023-07-20T09:55:52;22.20;99.90
17202;DHT22;8717;53.588;10.176;2023-07-20T09:58:21;21.90;99.90
17202;DHT22;8717;53.588;10.176;2023-07-20T10:00:51;21.80;99.90
17202;DHT22;8717;53.588;10.176;2023-07-20T10:03:19;21.80;99.90
17202;DHT22;8717;53.588;10.176;2023-07-20T10:05:48;22.00;99.90
17202;DHT22;8717;53.588;10.176;2023-07-20T10:08:20;22.10;99.90
17202;DHT22;8717;53.588;10.176;2023-07-20T10:10:48;22.30;99.90
17202;DHT22;8717;53.588;10.176;2023-07-20T10:13:17;22.50;99.90
17202;DHT22;8717;53.588;10.176;2023-07-20T10:15:49;22.70;99.90
17202;DHT22;8717;53.588;10.176;2023-07-20T10:18:20;23.00;99.90
17202;DHT22;8717;53.588;10.176;2023-07-20T10:20:49;23.30;99.90
17202;DHT22;8717;53.588;10.176;2023-07-20T10:23:19;23.60;99.90
17202;DHT22;8717;53.588;10.176;2023-07-20T10:25:46;23.80;99.90
17202;DHT22;8717;53.588;10.176;2023-07-20T10:28:13;24.10;99.90
17202;DHT22;8717;53.588;10.176;2023-07-20T10:30:41;24.30;99.90
17202;DHT22;8717;53.588;10.176;2023-07-20T10:33:09;24.50;98.80
17202;DHT22;8717;53.588;10.176;2023-07-20T10:35:51;24.70;97.80
17202;DHT22;8717;53.588;10.176;2023-07-20T10:38:19;24.90;96.30
17202;DHT22;8717;53.588;10.176;2023-07-20T10:40:54;25.10;95.70
17202;DHT22;8717;53.588;10.176;2023-07-20T10:43:21;25.10;93.80
17202;DHT22;8717;53.588;10.176;2023-07-20T10:45:49;25.00;94.30
17202;DHT22;8717;53.588;10.176;2023-07-20T10:48:19;24.70;93.30
17202;DHT22;8717;53.588;10.176;2023-07-20T10:53:29;24.10;95.90
17202;DHT22;8717;53.588;10.176;2023-07-20T10:56:06;23.50;96.30
17202;DHT22;8717;53.588;10.176;2023-07-20T10:58:33;22.80;98.60
17202;DHT22;8717;53.588;10.176;2023-07-20T11:01:01;22.20;99.90
17202;DHT22;8717;53.588;10.176;2023-07-20T11:03:33;21.80;99.90
17202;DHT22;8717;53.588;10.176;2023-07-20T11:09:07;21.30;99.90
17202;DHT22;8717;53.588;10.176;2023-07-20T11:11:37;21.10;99.90
17202;DHT22;8717;53.588;10.176;2023-07-20T11:14:06;21.00;99.90
17202;DHT22;8717;53.588;10.176;2023-07-20T11:16:38;20.90;99.90
17202;DHT22;8717;53.588;10.176;2023-07-20T11:19:06;20.80;99.90
17202;DHT22;8717;53.588;10.176;2023-07-20T11:21:43;20.70;99.90
17202;DHT22;8717;53.588;10.176;2023-07-20T11:24:11;20.60;99.90
17202;DHT22;8717;53.588;10.176;2023-07-20T11:26:47;20.40;99.90
17202;DHT22;8717;53.588;10.176;2023-07-20T11:29:14;20.20;99.90
17202;DHT22;8717;53.588;10.176;2023-07-20T11:31:43;19.90;99.90
17202;DHT22;8717;53.588;10.176;2023-07-20T11:34:12;19.60;99.90
17202;DHT22;8717;53.588;10.176;2023-07-20T11:36:40;19.30;99.90
17202;DHT22;8717;53.588;10.176;2023-07-20T11:39:09;19.00;99.90
17202;DHT22;8717;53.588;10.176;2023-07-20T11:41:37;18.70;99.90
17202;DHT22;8717;53.588;10.176;2023-07-20T11:44:05;18.60;99.90
17202;DHT22;8717;53.588;10.176;2023-07-20T11:46:33;18.50;99.90
17202;DHT22;8717;53.588;10.176;2023-07-20T11:49:00;18.50;99.90
17202;DHT22;8717;53.588;10.176;2023-07-20T11:51:28;18.60;99.90
17202;DHT22;8717;53.588;10.176;2023-07-20T11:53:55;18.60;99.90
17202;DHT22;8717;53.588;10.176;2023-07-20T11:56:23;18.70;99.90
17202;DHT22;8717;53.588;10.176;2023-07-20T11:58:54;18.80;99.90
17202;DHT22;8717;53.588;10.176;2023-07-20T12:01:22;18.90;99.90
17202;DHT22;8717;53.588;10.176;2023-07-20T12:03:49;19.10;99.90
17202;DHT22;8717;53.588;10.176;2023-07-20T12:06:16;19.20;99.90
17202;DHT22;8717;53.588;10.176;2023-07-20T12:08:43;19.30;99.90
17202;DHT22;8717;53.588;10.176;2023-07-20T12:11:10;19.40;99.90
17202;DHT22;8717;53.588;10.176;2023-07-20T12:13:38;19.50;99.90
17202;DHT22;8717;53.588;10.176;2023-07-20T12:16:13;19.60;99.90
17202;DHT22;8717;53.588;10.176;2023-07-20T12:18:40;19.50;99.90
17202;DHT22;8717;53.588;10.176;2023-07-20T12:21:07;19.40;99.90
17202;DHT22;8717;53.588;10.176;2023-07-20T12:23:39;19.30;99.90
17202;DHT22;8717;53.588;10.176;2023-07-20T12:26:09;19.10;99.90
17202;DHT22;8717;53.588;10.176;2023-07-20T12:28:39;19.00;99.90
17202;DHT22;8717;53.588;10.176;2023-07-20T12:31:07;18.80;99.90
17202;DHT22;8717;53.588;10.176;2023-07-20T12:33:36;18.50;99.90
17202;DHT22;8717;53.588;10.176;2023-07-20T12:36:04;18.30;99.90
17202;DHT22;8717;53.588;10.176;2023-07-20T12:38:31;18.10;99.90
17202;DHT22;8717;53.588;10.176;2023-07-20T12:41:01;17.90;99.90
17202;DHT22;8717;53.588;10.176;2023-07-20T12:43:28;17.70;99.90
17202;DHT22;8717;53.588;10.176;2023-07-20T12:45:55;17.50;99.90
17202;DHT22;8717;53.588;10.176;2023-07-20T12:48:22;17.40;99.90
17202;DHT22;8717;53.588;10.176;2023-07-20T12:50:50;17.30;99.90
17202;DHT22;8717;53.588;10.176;2023-07-20T12:53:17;17.30;99.90
17202;DHT22;8717;53.588;10.176;2023-07-20T12:55:44;17.30;99.90
17202;DHT22;8717;53.588;10.176;2023-07-20T12:58:12;17.40;99.90
17202;DHT22;8717;53.588;10.176;2023-07-20T13:00:39;17.50;99.90
17202;DHT22;8717;53.588;10.176;2023-07-20T13:03:06;17.60;99.90
17202;DHT22;8717;53.588;10.176;2023-07-20T13:05:34;17.70;99.90
17202;DHT22;8717;53.588;10.176;2023-07-20T13:08:02;17.70;99.90
17202;DHT22;8717;53.588;10.176;2023-07-20T13:10:31;17.80;99.90
17202;DHT22;8717;53.588;10.176;2023-07-20T13:12:57;17.90;99.90
17202;DHT22;8717;53.588;10.176;2023-07-20T13:15:29;17.90;99.90
17202;DHT22;8717;53.588;10.176;2023-07-20T13:17:57;18.00;99.90
17202;DHT22;8717;53.588;10.176;2023-07-20T13:20:24;18.20;99.90
17202;DHT22;8717;53.588;10.176;2023-07-20T13:22:51;18.30;99.90
17202;DHT22;8717;53.588;10.176;2023-07-20T13:25:19;18.40;99.90
17202;DHT22;8717;53.588;10.176;2023-07-20T13:27:46;18.70;99.90
17202;DHT22;8717;53.588;10.176;2023-07-20T13:30:13;18.90;99.90
17202;DHT22;8717;53.588;10.176;2023-07-20T13:32:42;19.10;99.90
17202;DHT22;8717;53.588;10.176;2023-07-20T13:35:09;19.40;99.90
17202;DHT22;8717;53.588;10.176;2023-07-20T13:37:36;19.70;99.90
17202;DHT22;8717;53.588;10.176;2023-07-20T13:40:03;19.90;99.90
17202;DHT22;8717;53.588;10.176;2023-07-20T13:42:32;20.10;99.90
17202;DHT22;8717;53.588;10.176;2023-07-20T13:44:59;20.20;99.90
17202;DHT22;8717;53.588;10.176;2023-07-20T13:47:26;20.40;99.90
17202;DHT22;8717;53.588;10.176;2023-07-20T13:49:53;20.40;99.90
17202;DHT22;8717;53.588;10.176;2023-07-20T13:52:21;20.50;99.90
17202;DHT22;8717;53.588;10.176;2023-07-20T13:54:48;20.50;99.90
17202;DHT22;8717;53.588;10.176;2023-07-20T13:57:14;20.50;99.90
17202;DHT22;8717;53.588;10.176;2023-07-20T13:59:43;20.60;99.90
17202;DHT22;8717;53.588;10.176;2023-07-20T14:02:10;20.70;99.90
17202;DHT22;8717;53.588;10.176;2023-07-20T14:04:36;20.80;99.90
17202;DHT22;8717;53.588;10.176;2023-07-20T14:07:04;21.00;99.90
17202;DHT22;8717;53.588;10.176;2023-07-20T14:09:31;21.20;99.90
17202;DHT22;8717;53.588;10.176;2023-07-20T14:11:58;21.30;99.90
17202;DHT22;8717;53.588;10.176;2023-07-20T14:14:25;21.50;99.90
17202;DHT22;8717;53.588;10.176;2023-07-20T14:16:53;21.50;99.90
17202;DHT22;8717;53.588;10.176;2023-07-20T14:19:21;21.50;99.90
17202;DHT22;8717;53.588;10.176;2023-07-20T14:21:48;21.50;99.60
17202;DHT22;8717;53.588;10.176;2023-07-20T14:24:14;21.50;99.20
17202;DHT22;8717;53.588;10.176;2023-07-20T14:26:41;21.60;99.00
17202;DHT22;8717;53.588;10.176;2023-07-20T14:29:08;21.70;98.00
17202;DHT22;8717;53.588;10.176;2023-07-20T14:31:34;21.70;97.40
17202;DHT22;8717;53.588;10.176;2023-07-20T14:34:02;21.70;96.70
17202;DHT22;8717;53.588;10.176;2023-07-20T14:36:29;21.60;96.20
17202;DHT22;8717;53.588;10.176;2023-07-20T14:38:56;21.50;96.10
17202;DHT22;8717;53.588;10.176;2023-07-20T14:41:22;21.40;95.80
17202;DHT22;8717;53.588;10.176;2023-07-20T14:43:49;21.30;95.70
17202;DHT22;8717;53.588;10.176;2023-07-20T14:46:16;21.10;96.10
17202;DHT22;8717;53.588;10.176;2023-07-20T14:48:42;21.00;96.50
17202;DHT22;8717;53.588;10.176;2023-07-20T14:51:10;21.00;96.70
17202;DHT22;8717;53.588;10.176;2023-07-20T14:53:37;21.00;96.90
17202;DHT22;8717;53.588;10.176;2023-07-20T14:56:04;21.00;96.30
17202;DHT22;8717;53.588;10.176;2023-07-20T14:58:31;21.20;96.50
17202;DHT22;8717;53.588;10.176;2023-07-20T15:00:58;21.40;96.20
17202;DHT22;8717;53.588;10.176;2023-07-20T15:03:25;21.50;96.40
17202;DHT22;8717;53.588;10.176;2023-07-20T15:05:51;21.60;95.80
17202;DHT22;8717;53.588;10.176;2023-07-20T15:08:19;21.70;95.10
17202;DHT22;8717;53.588;10.176;2023-07-20T15:10:47;21.90;93.80
17202;DHT22;8717;53.588;10.176;2023-07-20T15:13:13;22.00;93.10
17202;DHT22;8717;53.588;10.176;2023-07-20T15:15:40;22.00;91.90
17202;DHT22;8717;53.588;10.176;2023-07-20T15:18:07;22.00;91.80
17202;DHT22;8717;53.588;10.176;2023-07-20T15:20:34;22.10;92.50
17202;DHT22;8717;53.588;10.176;2023-07-20T15:23:00;22.10;92.60
17202;DHT22;8717;53.588;10.176;2023-07-20T15:25:28;22.10;92.40
17202;DHT22;8717;53.588;10.176;2023-07-20T15:27:55;22.20;92.40
17202;DHT22;8717;53.588;10.176;2023-07-20T15:30:22;22.10;92.60
17202;DHT22;8717;53.588;10.176;2023-07-20T15:32:48;22.00;92.70
17202;DHT22;8717;53.588;10.176;2023-07-20T15:35:15;21.90;92.60
17202;DHT22;8717;53.588;10.176;2023-07-20T15:37:42;21.90;93.00
17202;DHT22;8717;53.588;10.176;2023-07-20T15:40:11;21.80;92.90
17202;DHT22;8717;53.588;10.176;2023-07-20T15:42:39;21.70;93.10
17202;DHT22;8717;53.588;10.176;2023-07-20T15:45:07;21.70;93.30
17202;DHT22;8717;53.588;10.176;2023-07-20T15:47:34;21.70;93.30
17202;DHT22;8717;53.588;10.176;2023-07-20T15:50:00;21.70;93.40
17202;DHT22;8717;53.588;10.176;2023-07-20T15:52:27;21.80;93.20
17202;DHT22;8717;53.588;10.176;2023-07-20T15:54:54;21.80;92.80
17202;DHT22;8717;53.588;10.176;2023-07-20T15:57:21;21.90;93.10
17202;DHT22;8717;53.588;10.176;2023-07-20T15:59:49;22.00;92.60
17202;DHT22;8717;53.588;10.176;2023-07-20T16:02:16;22.00;91.90
17202;DHT22;8717;53.588;10.176;2023-07-20T16:04:43;22.00;92.00
17202;DHT22;8717;53.588;10.176;2023-07-20T16:07:11;22.10;91.80
17202;DHT22;8717;53.588;10.176;2023-07-20T16:09:38;22.00;92.00